WEATHER DATA

YESTERDAY
Time Temp. Dewp. Hum. Wind dir Wind speed Wind gust Bar. 1h Prec. 24h Prec.
00:07 21 14.2 65 270 0.3 0.8 1015.6 0.0000 0.0000
00:17 20.8 14 65 270 0.3 0.8 1015.6 0.0000 0.0000
00:27 20.7 14.1 66 270 0.3 0.8 1015.6 0.0000 0.0000
00:37 20.6 14 66 0 0.8 1015.6 0.0000 0.0000
00:48 20.6 14 66 0 0.8 1015.5 0.0000 0.0000
00:58 20.5 13.9 66 60 0.3 0.8 1015.6 0.0000 0.0000
01:07 20.5 13.9 66 0 0.8 1015.5 0.0000 0.0000
01:18 20.4 13.8 66 0 0.8 1015.5 0.0000 0.0000
01:28 20.2 13.9 67 0 0.8 1015.4 0.0000 0.0000
01:38 20.1 13.8 67 0 0.8 1015.5 0.0000 0.0000
01:48 19.9 13.8 68 0 0.3 1015.3 0.0000 0.0000
01:58 19.8 13.7 68 0 0.8 1015.3 0.0000 0.0000
02:08 19.6 13.8 69 0 0.8 1015.3 0.0000 0.0000
02:18 19.4 13.6 69 0 0.8 1015.2 0.0000 0.0000
02:28 19.3 13.7 70 0 0.3 1015.1 0.0000 0.0000
02:38 19.2 13.6 70 0 0.3 1015.1 0.0000 0.0000
02:48 19 13.4 70 0 0.3 1015 0.0000 0.0000
02:58 18.9 13.5 71 0 0.3 1015 0.0000 0.0000
03:08 18.8 13.4 71 37 0.3 0.8 1014.9 0.0000 0.0000
03:18 18.7 13.3 71 0 0.8 1014.8 0.0000 0.0000
03:29 18.6 13.2 71 0 0.3 1014.9 0.0000 0.0000
03:39 18.4 13.3 72 0 0.8 1014.7 0.0000 0.0000
03:48 18.3 13.2 72 0 0.8 1014.7 0.0000 0.0000
03:58 18.2 13.1 72 0 0.3 1014.7 0.0000 0.0000
04:09 18.1 13.2 73 36 0.3 0.8 1014.6 0.0000 0.0000
04:19 18 13.1 73 0 0.8 1014.6 0.0000 0.0000
04:28 17.9 13.2 74 0 0.8 1014.5 0.0000 0.0000
04:39 17.9 13.2 74 0 0.3 1014.4 0.0000 0.0000
04:49 17.9 13.2 74 0 0.3 1014.3 0.0000 0.0000
04:59 17.9 13.2 74 341 0.3 0.8 1014.4 0.0000 0.0000
05:09 17.8 13.1 74 270 0.3 0.8 1014.4 0.0000 0.0000
05:19 17.8 13.3 75 270 0.3 0.8 1014.3 0.0000 0.0000
05:29 17.7 13 74 270 0.3 0.8 1014.4 0.0000 0.0000
05:39 17.7 13.2 75 270 0.3 0.8 1014.2 0.0000 0.0000
05:50 17.8 13.3 75 270 0.3 0.8 1014.3 0.0000 0.0000
05:59 17.9 13.4 75 270 0.3 0.8 1014.2 0.0000 0.0000
06:09 18 13.5 75 237 0.3 0.8 1014.1 0.0000 0.0000
06:19 18.2 13.7 75 270 0.3 0.8 1014 0.0000 0.0000
06:30 18.4 13.9 75 270 0.3 0.8 1013.9 0.0000 0.0000
06:39 18.6 14.1 75 270 0.3 0.8 1014 0.0000 0.0000
06:49 19 14.5 75 270 0.3 0.8 1014 0.0000 0.0000
07:00 19.8 15 74 270 0.3 0.8 1013.9 0.0000 0.0000
07:10 21.8 16.3 71 270 0.3 0.8 1014 0.0000 0.0000
07:20 23 16.8 68 270 0.3 1.1 1014.1 0.0000 0.0000
07:30 23.9 16.9 65 246 0.8 1.4 1014 0.0000 0.0000
07:40 24.5 17 63 270 0.3 1.1 1014.1 0.0000 0.0000
07:50 25.1 17.3 62 26 0.3 1.1 1013.9 0.0000 0.0000
08:00 25.1 17.1 61 90 0.3 1.4 1014 0.0000 0.0000
08:10 25.4 17.1 60 60 0.3 0.8 1013.8 0.0000 0.0000
08:20 24.9 16.6 60 90 0.3 1.4 1013.9 0.0000 0.0000
08:30 24.4 16.7 62 90 0.3 0.8 1013.9 0.0000 0.0000
08:40 24 16.3 62 90 0.3 1.4 1014.1 0.0000 0.0000
08:50 23.8 16.1 62 90 0.3 1.1 1013.9 0.0000 0.0000
09:00 24.1 16.6 63 90 0.3 1.4 1014 0.0000 0.0000
09:10 24.6 16.8 62 45 0.3 1.1 1013.9 0.0000 0.0000
09:21 25.2 17.1 61 90 0.3 1.4 1014 0.0000 0.0000
09:31 26.1 17.7 60 270 0.3 0.8 1013.8 0.0000 0.0000
09:40 26.1 17.5 59 150 0.3 1.1 1013.9 0.0000 0.0000
09:50 25.8 17.5 60 191 0.3 0.8 1013.7 0.0000 0.0000
10:01 25.8 17.5 60 235 0.3 1.4 1013.7 0.0000 0.0000
10:11 26 17.9 61 231 0.3 1.1 1013.7 0.0000 0.0000
10:20 26.6 17.9 59 123 0.3 1.1 1013.7 0.0000 0.0000
10:31 27.1 18.1 58 315 0.3 0.8 1013.6 0.0000 0.0000
10:41 27.6 18 56 8 0.3 1.4 1013.6 0.0000 0.0000
10:51 28.1 18.2 55 270 0.3 0.8 1013.5 0.0000 0.0000
11:01 28.6 18.4 54 168 0.3 1.1 1013.6 0.0000 0.0000
11:11 28.8 18.6 54 18 0.3 1.7 1013.4 0.0000 0.0000
11:21 29 19 55 341 0.3 1.4 1013.3 0.0000 0.0000
11:31 29.3 18.7 53 324 0.3 1.7 1013.4 0.0000 0.0000
11:42 29.6 18.4 51 90 0.3 1.1 1013.3 0.0000 0.0000
11:51 30 18.8 51 270 0.3 1.1 1013.3 0.0000 0.0000
12:01 30.3 18.7 50 4 0.3 1.1 1013.2 0.0000 0.0000
12:11 30.5 18.6 49 353 0.3 0.8 1013.2 0.0000 0.0000
12:22 30.5 18.3 48 354 0.3 1.4 1013 0.0000 0.0000
12:31 30.6 19 50 323 0.3 1.1 1013 0.0000 0.0000
12:41 30.7 18.1 47 270 0.3 1.4 1012.9 0.0000 0.0000
12:52 31 18 46 270 0.3 1.4 1012.9 0.0000 0.0000
13:02 31.2 18.2 46 233 0.8 2.2 1012.7 0.0000 0.0000
13:12 31.3 18 45 239 1.1 3.6 1012.7 0.0000 0.0000
13:21 31 17.7 45 225 0.3 1.1 1012.7 0.0000 0.0000
13:32 31.2 17.9 45 232 0.8 2.5 1012.6 0.0000 0.0000
13:42 31.5 17.8 44 219 0.3 1.4 1012.5 0.0000 0.0000
13:52 31.9 17.8 43 225 0.8 1.7 1012.4 0.0000 0.0000
14:02 32 17.5 42 235 1.1 2.5 1012.4 0.0000 0.0000
14:12 31.7 17.6 43 246 0.8 2.8 1012.4 0.0000 0.0000
14:22 31.4 16.9 42 240 0.8 2.5 1012.3 0.0000 0.0000
14:32 31 17 43 270 0.3 1.1 1012.4 0.0000 0.0000
14:42 31 17.3 44 249 0.8 2.5 1012.2 0.0000 0.0000
14:52 30.9 17.6 45 241 0.8 2.2 1012.3 0.0000 0.0000
15:02 30.8 17.1 44 270 0.3 1.7 1012 0.0000 0.0000
15:13 31 17.3 44 230 1.1 2.2 1012 0.0000 0.0000
15:23 30.7 17.4 45 230 0.8 2.2 1011.8 0.0000 0.0000
15:32 30.8 17.5 45 236 0.8 2.5 1011.9 0.0000 0.0000
15:42 30.6 17.3 45 229 0.8 2.2 1011.9 0.0000 0.0000
15:53 30.6 17.3 45 259 0.8 2.5 1011.9 0.0000 0.0000
16:03 30.7 17.1 44 236 0.8 2.5 1011.8 0.0000 0.0000
16:13 30.8 17.1 44 242 0.8 1.7 1011.7 0.0000 0.0000
16:23 30.8 17.5 45 270 0.3 1.4 1011.7 0.0000 0.0000
16:33 30.8 17.1 44 338 0.3 1.4 1011.6 0.0000 0.0000
16:43 30.6 17 44 229 0.3 1.4 1011.6 0.0000 0.0000
16:53 30.8 17.1 44 236 0.8 1.4 1011.4 0.0000 0.0000
17:03 30.7 17.1 44 15 0.3 2.2 1011.3 0.0000 0.0000
17:13 30.4 17.1 45 10 0.3 1.4 1011.4 0.0000 0.0000
17:23 30.4 17.1 45 338 0.8 2.2 1011.2 0.0000 0.0000
17:34 30.1 16.9 45 354 0.8 1.4 1011.1 0.0000 0.0000
17:44 29.9 17 46 225 0.3 1.7 1011 0.0000 0.0000
17:53 29.8 16.9 46 348 0.3 1.7 1011.1 0.0000 0.0000
18:03 29.7 17.5 48 348 0.3 1.4 1011 0.0000 0.0000
18:14 29.4 17.6 49 347 0.8 3.3 1011 0.0000 0.0000
18:24 28.8 17.7 51 336 0.8 2.8 1011 0.0000 0.0000
18:33 28.5 17.7 52 334 1.1 3.3 1011 0.0000 0.0000
18:44 28.1 17 51 342 1.1 2.8 1011.1 0.0000 0.0000
18:54 27.7 16.3 50 354 0.8 2.8 1011 0.0000 0.0000
19:04 27.3 16.3 51 339 1.1 2.5 1011 0.0000 0.0000
19:14 26.9 15.6 50 339 1.1 2.8 1011.1 0.0000 0.0000
19:24 26.7 15.7 51 341 1.1 2.5 1011 0.0000 0.0000
19:34 26.7 15.7 51 342 0.8 2.5 1010.9 0.0000 0.0000
19:44 26.5 15.5 51 345 1.1 2.2 1011 0.0000 0.0000
19:54 26.2 15.6 52 333 0.8 2.5 1011.1 0.0000 0.0000
20:05 25.9 15.6 53 341 0.8 2.5 1011 0.0000 0.0000
20:14 25.6 15.6 54 327 0.8 2.5 1011 0.0000 0.0000
20:24 25.5 15.2 53 334 1.1 2.5 1010.9 0.0000 0.0000
20:35 25.2 14.7 52 339 0.8 2.5 1010.9 0.0000 0.0000
20:45 25 14.5 52 335 0.8 2.2 1011.1 0.0000 0.0000
20:54 24.9 15 54 337 0.3 1.4 1011.1 0.0000 0.0000
21:05 24.6 15.2 56 326 0.8 2.8 1011.2 0.0000 0.0000
21:15 24.4 15.6 58 322 0.3 1.1 1011.3 0.0000 0.0000
21:25 23.8 15.8 61 335 0.8 2.5 1011.4 0.0000 0.0000
21:35 23.3 15.9 63 341 0.8 1.7 1011.4 0.0000 0.0000
21:45 22.9 15.7 64 329 0.3 1.4 1011.4 0.0000 0.0000
21:55 22.5 15.4 64 326 0.8 1.4 1011.2 0.0000 0.0000
22:05 22.2 15.1 64 338 0.8 3.3 1011.4 0.0000 0.0000
22:15 21.9 14.8 64 338 0.8 2.5 1011.5 0.0000 0.0000
22:25 21.6 14.5 64 347 0.8 2.5 1011.5 0.0000 0.0000
22:45 21 13.7 63 322 0.8 1.7 1011.4 0.0000 0.0000
22:56 20.8 13.7 64 318 0.8 2.5 1011.3 0.0000 0.0000
23:06 20.7 13.7 64 328 0.8 1.7 1011.3 0.0000 0.0000
23:15 20.6 13.6 64 334 0.8 2.2 1011.2 0.0000 0.0000
23:26 20.4 13.6 65 335 0.8 1.4 1011.1 0.0000 0.0000
23:36 20.2 13.4 65 315 0.8 1.7 1011.1 0.0000 0.0000
23:46 19.9 13.1 65 329 0.8 2.2 1011 0.0000 0.0000
23:55 20 13.5 66 315 0.8 1.7 1010.8 0.0000 0.0000

DAY STATISTIC

2019-06-18
TEMPERATURE
AVERAGE
24.8
HIGH
32.0
14:02
LOW
17.7
05:29
PRESSURE
AVERAGE
1013.0
HIGH
1015.6
00:07
LOW
1010.8
23:55
DEWPOINT
AVERAGE
15.8
HIGH
19.0
11:21
LOW
13.0
05:29
HUMIDITY
AVERAGE
59
HIGH
75
05:19
LOW
42
14:02
WIND SPEED
AVERAGE
0.5
HIGH
1.1
13:12
WIND GUST
AVERAGE
1.5
HIGH
3.6
13:12
WIND DIRECTION
PREVAILING
N
19.7%
N
19.7
NE
4.2
E
5.6
SE
1.4
S
1.4
SW
16.2
W
19.0
NW
16.2
PRECIPITATION
RAIN HOUR
0.0
RAIN DAY
0.0
TEMPERATURE (°C)
LOW
17.7
HIGH
32.0
AVERAGE
24.8
PRESSURE (hpa)
LOW
1010.8
HIGH
1015.6
AVERAGE
1013.0
DEVICE